Fountain Green, Utah
Current Conditions -  °F | °C
As of 4:55 AM on Sunday 23 Nov 2014 (Local Time) from KPVU Reporting Station
Broken Clouds Broken Clouds  
Wind Chill: 25°   Ceiling: 8000
Heat Index: 36°   Visibility: 10mi
Dew Point: 25°   Wind: 20mph
Humidity: 65%   Direction: 310°NW
Pressure: 30.05"   Gusts: NA
Location:  39.63°N, 111.64°W
Report Text: KPVU 231155Z 31017KT 10SM FEW065 BKN080 02/M04 A3005 RMK AO1 60001 70030 10020 20010 52020
Loading
Personal Weather Stations






























Interactive Weather Map New forecast layout! Learn more

10-Day Weather Forecast

Advertisements
Track Severe Weather on mobile